This is the latest recevied weather packets stored in our database for station/object DL1NUX-15. If no packets are shown the sender has not sent any weather packets the latest 10 day(s).
| Time | Temp. | Humidity | Pressure | Rain* | Wind** | Luminosity | Snow |
|---|---|---|---|---|---|---|---|
| 1777590940 | 8.89° C | 61% | 1030 hPa | 0 mm | - | 0 W/m² | - |
| 1777590341 | 8.89° C | 60% | 1030 hPa | 0 mm | - | 0 W/m² | - |
| 1777589141 | 8.89° C | 60% | 1030.1 hPa | 0 mm | - | 0 W/m² | - |
| 1777588541 | 8.89° C | 61% | 1030.2 hPa | 0 mm | - | 0 W/m² | - |
| 1777585544 | 10° C | 57% | 1030 hPa | 0 mm | - | 0 W/m² | - |
| 1777583745 | 10.56° C | 56% | 1030 hPa | 0 mm | - | 0 W/m² | - |
| 1777582546 | 10.56° C | 55% | 1030 hPa | 0 mm | - | 0 W/m² | - |
| 1777581347 | 10.56° C | 54% | 1029.8 hPa | 0 mm | - | 0 W/m² | - |
| 1777577749 | 11.67° C | 51% | 1029.7 hPa | 0 mm | - | 0 W/m² | - |
| 1777576550 | 12.22° C | 49% | 1029.5 hPa | 0 mm | - | 0 W/m² | - |
| 1777574152 | 13.33° C | 44% | 1029 hPa | 0 mm | - | 1 W/m² | - |
| 1777572353 | 14.44° C | 38% | 1028.8 hPa | 0 mm | - | 14 W/m² | - |
| 1777570554 | 15° C | 36% | 1028.7 hPa | 0 mm | - | 35 W/m² | - |
| 1777569954 | 15.56° C | 36% | 1028.6 hPa | 0 mm | - | 43 W/m² | - |
| 1777566956 | 16.11° C | 31% | 1028.7 hPa | 0 mm | - | 126 W/m² | - |
| 1777565757 | 16.67° C | 30% | 1028.6 hPa | 0 mm | - | 173 W/m² | - |
| 1777564558 | 16.67° C | 30% | 1028.7 hPa | 0 mm | - | 233 W/m² | - |
| 1777563359 | 16.67° C | 30% | 1028.8 hPa | 0 mm | - | 265 W/m² | - |
| 1777562759 | 17.22° C | 29% | 1028.6 hPa | 0 mm | - | 284 W/m² | - |
| 1777561516 | 17.22° C | 29% | 1028.9 hPa | 0 mm | - | 302 W/m² | - |
| 1777560916 | 16.67° C | 28% | 1028.7 hPa | 0 mm | - | 312 W/m² | - |
| 1777559717 | 16.67° C | 27% | 1028.9 hPa | 0 mm | - | 345 W/m² | - |
| 1777556720 | 16.11° C | 27% | 1029.4 hPa | 0 mm | - | 513 W/m² | - |
| 1777554321 | 15.56° C | 29% | 1029.9 hPa | 0 mm | - | 505 W/m² | - |
| 1777553721 | 15° C | 29% | 1030.1 hPa | 0 mm | - | 515 W/m² | - |
* Rain latest hour (hover to see other rain measurements)
** Current wind speed in m/s (hover to see current wind gust speed)